sensor_id;sensor_type;location;lat;lon;timestamp;P1;durP1;ratioP1;P2;durP2;ratioP2
12687;SDS011;6408;59.388;17.798;2022-08-03T00:01:32;2.55;;;1.35;;
12687;SDS011;6408;59.388;17.798;2022-08-03T00:03:59;1.42;;;0.90;;
12687;SDS011;6408;59.388;17.798;2022-08-03T00:06:26;1.52;;;0.85;;
12687;SDS011;6408;59.388;17.798;2022-08-03T00:08:53;2.80;;;1.10;;
12687;SDS011;6408;59.388;17.798;2022-08-03T00:11:21;2.78;;;1.17;;
12687;SDS011;6408;59.388;17.798;2022-08-03T00:13:48;2.03;;;1.10;;
12687;SDS011;6408;59.388;17.798;2022-08-03T00:16:15;1.92;;;1.10;;
12687;SDS011;6408;59.388;17.798;2022-08-03T00:18:42;3.80;;;1.30;;
12687;SDS011;6408;59.388;17.798;2022-08-03T00:21:09;2.35;;;1.20;;
12687;SDS011;6408;59.388;17.798;2022-08-03T00:23:35;2.25;;;1.35;;
12687;SDS011;6408;59.388;17.798;2022-08-03T00:26:03;3.60;;;1.38;;
12687;SDS011;6408;59.388;17.798;2022-08-03T00:28:31;2.25;;;1.15;;
12687;SDS011;6408;59.388;17.798;2022-08-03T00:30:57;1.92;;;1.45;;
12687;SDS011;6408;59.388;17.798;2022-08-03T00:33:25;2.92;;;1.55;;
12687;SDS011;6408;59.388;17.798;2022-08-03T00:35:51;1.38;;;1.20;;
12687;SDS011;6408;59.388;17.798;2022-08-03T00:38:18;2.63;;;1.20;;
12687;SDS011;6408;59.388;17.798;2022-08-03T00:40:45;2.53;;;1.42;;
12687;SDS011;6408;59.388;17.798;2022-08-03T00:43:12;2.40;;;1.20;;
12687;SDS011;6408;59.388;17.798;2022-08-03T00:45:42;1.42;;;1.15;;
12687;SDS011;6408;59.388;17.798;2022-08-03T00:48:09;2.83;;;1.30;;
12687;SDS011;6408;59.388;17.798;2022-08-03T00:50:38;2.33;;;1.38;;
12687;SDS011;6408;59.388;17.798;2022-08-03T00:53:05;1.38;;;1.20;;
12687;SDS011;6408;59.388;17.798;2022-08-03T00:55:33;2.50;;;1.17;;
12687;SDS011;6408;59.388;17.798;2022-08-03T00:58:02;1.80;;;1.23;;
12687;SDS011;6408;59.388;17.798;2022-08-03T01:00:30;2.95;;;1.13;;
12687;SDS011;6408;59.388;17.798;2022-08-03T01:03:01;2.92;;;1.00;;
12687;SDS011;6408;59.388;17.798;2022-08-03T01:05:28;2.17;;;1.00;;
12687;SDS011;6408;59.388;17.798;2022-08-03T01:08:01;1.27;;;0.90;;
12687;SDS011;6408;59.388;17.798;2022-08-03T01:10:35;3.03;;;1.30;;
12687;SDS011;6408;59.388;17.798;2022-08-03T01:13:08;2.00;;;1.10;;
12687;SDS011;6408;59.388;17.798;2022-08-03T01:15:48;2.75;;;1.13;;
12687;SDS011;6408;59.388;17.798;2022-08-03T01:18:24;2.15;;;1.20;;
12687;SDS011;6408;59.388;17.798;2022-08-03T01:20:55;2.13;;;1.00;;
12687;SDS011;6408;59.388;17.798;2022-08-03T01:23:36;1.65;;;1.10;;
12687;SDS011;6408;59.388;17.798;2022-08-03T01:26:20;2.38;;;1.10;;
12687;SDS011;6408;59.388;17.798;2022-08-03T01:29:07;1.35;;;0.90;;
12687;SDS011;6408;59.388;17.798;2022-08-03T01:31:56;2.10;;;1.02;;
12687;SDS011;6408;59.388;17.798;2022-08-03T01:34:27;1.83;;;1.15;;
12687;SDS011;6408;59.388;17.798;2022-08-03T01:37:02;1.20;;;1.10;;
12687;SDS011;6408;59.388;17.798;2022-08-03T01:39:32;1.58;;;0.90;;
12687;SDS011;6408;59.388;17.798;2022-08-03T01:42:02;1.50;;;1.08;;
12687;SDS011;6408;59.388;17.798;2022-08-03T01:44:33;1.13;;;1.02;;
12687;SDS011;6408;59.388;17.798;2022-08-03T01:47:03;3.83;;;1.25;;
12687;SDS011;6408;59.388;17.798;2022-08-03T01:49:32;2.63;;;1.10;;
12687;SDS011;6408;59.388;17.798;2022-08-03T01:52:03;3.67;;;1.25;;
12687;SDS011;6408;59.388;17.798;2022-08-03T01:54:31;2.75;;;1.55;;
12687;SDS011;6408;59.388;17.798;2022-08-03T01:57:01;1.58;;;1.13;;
12687;SDS011;6408;59.388;17.798;2022-08-03T01:59:28;1.88;;;1.00;;
12687;SDS011;6408;59.388;17.798;2022-08-03T02:01:57;3.28;;;1.17;;
12687;SDS011;6408;59.388;17.798;2022-08-03T02:04:27;2.35;;;1.20;;
12687;SDS011;6408;59.388;17.798;2022-08-03T02:06:55;4.82;;;1.15;;
12687;SDS011;6408;59.388;17.798;2022-08-03T02:09:23;2.38;;;1.13;;
12687;SDS011;6408;59.388;17.798;2022-08-03T02:11:52;1.35;;;1.00;;
12687;SDS011;6408;59.388;17.798;2022-08-03T02:14:22;1.55;;;1.10;;
12687;SDS011;6408;59.388;17.798;2022-08-03T02:16:50;3.38;;;1.23;;
12687;SDS011;6408;59.388;17.798;2022-08-03T02:19:17;2.05;;;1.10;;
12687;SDS011;6408;59.388;17.798;2022-08-03T02:21:46;1.60;;;1.15;;
12687;SDS011;6408;59.388;17.798;2022-08-03T02:24:16;2.05;;;1.30;;
12687;SDS011;6408;59.388;17.798;2022-08-03T02:26:43;1.58;;;1.00;;
12687;SDS011;6408;59.388;17.798;2022-08-03T02:29:12;1.98;;;1.10;;
12687;SDS011;6408;59.388;17.798;2022-08-03T02:31:43;1.65;;;1.00;;
12687;SDS011;6408;59.388;17.798;2022-08-03T02:34:12;1.40;;;0.93;;
12687;SDS011;6408;59.388;17.798;2022-08-03T02:36:40;1.90;;;1.00;;
12687;SDS011;6408;59.388;17.798;2022-08-03T02:39:12;3.35;;;1.20;;
12687;SDS011;6408;59.388;17.798;2022-08-03T02:41:48;2.78;;;1.20;;
12687;SDS011;6408;59.388;17.798;2022-08-03T02:44:17;3.10;;;1.10;;
12687;SDS011;6408;59.388;17.798;2022-08-03T02:46:52;2.38;;;1.05;;
12687;SDS011;6408;59.388;17.798;2022-08-03T02:49:20;2.28;;;1.00;;
12687;SDS011;6408;59.388;17.798;2022-08-03T02:51:50;4.68;;;1.20;;
12687;SDS011;6408;59.388;17.798;2022-08-03T02:54:19;1.70;;;1.00;;
12687;SDS011;6408;59.388;17.798;2022-08-03T02:56:48;2.28;;;1.20;;
12687;SDS011;6408;59.388;17.798;2022-08-03T02:59:17;2.20;;;1.15;;
12687;SDS011;6408;59.388;17.798;2022-08-03T03:01:44;2.63;;;1.40;;
12687;SDS011;6408;59.388;17.798;2022-08-03T03:04:12;1.60;;;1.08;;
12687;SDS011;6408;59.388;17.798;2022-08-03T03:06:40;1.50;;;1.08;;
12687;SDS011;6408;59.388;17.798;2022-08-03T03:09:07;3.30;;;1.35;;
12687;SDS011;6408;59.388;17.798;2022-08-03T03:11:37;2.35;;;1.02;;
12687;SDS011;6408;59.388;17.798;2022-08-03T03:14:04;1.85;;;1.10;;
12687;SDS011;6408;59.388;17.798;2022-08-03T03:16:32;2.53;;;1.20;;
12687;SDS011;6408;59.388;17.798;2022-08-03T03:18:59;1.23;;;1.08;;
12687;SDS011;6408;59.388;17.798;2022-08-03T03:21:27;1.55;;;1.17;;
12687;SDS011;6408;59.388;17.798;2022-08-03T03:23:56;2.30;;;1.25;;
12687;SDS011;6408;59.388;17.798;2022-08-03T03:26:24;2.42;;;1.33;;
12687;SDS011;6408;59.388;17.798;2022-08-03T03:28:52;2.47;;;0.95;;
12687;SDS011;6408;59.388;17.798;2022-08-03T03:31:20;1.52;;;1.20;;
12687;SDS011;6408;59.388;17.798;2022-08-03T03:33:47;2.42;;;1.00;;
12687;SDS011;6408;59.388;17.798;2022-08-03T03:36:14;1.52;;;1.27;;
12687;SDS011;6408;59.388;17.798;2022-08-03T03:38:42;1.42;;;1.20;;
12687;SDS011;6408;59.388;17.798;2022-08-03T03:41:09;1.10;;;1.00;;
12687;SDS011;6408;59.388;17.798;2022-08-03T03:43:36;2.85;;;1.10;;
12687;SDS011;6408;59.388;17.798;2022-08-03T03:46:04;2.55;;;1.30;;
12687;SDS011;6408;59.388;17.798;2022-08-03T03:48:32;1.85;;;1.17;;
12687;SDS011;6408;59.388;17.798;2022-08-03T03:50:59;1.73;;;1.10;;
12687;SDS011;6408;59.388;17.798;2022-08-03T03:53:26;2.03;;;1.27;;
12687;SDS011;6408;59.388;17.798;2022-08-03T03:55:53;2.22;;;1.05;;
12687;SDS011;6408;59.388;17.798;2022-08-03T03:58:20;4.15;;;1.35;;
12687;SDS011;6408;59.388;17.798;2022-08-03T04:00:47;1.63;;;1.20;;
12687;SDS011;6408;59.388;17.798;2022-08-03T04:03:15;3.13;;;1.33;;
12687;SDS011;6408;59.388;17.798;2022-08-03T04:05:42;1.45;;;1.35;;
12687;SDS011;6408;59.388;17.798;2022-08-03T04:08:26;2.70;;;1.40;;
12687;SDS011;6408;59.388;17.798;2022-08-03T04:11:12;1.33;;;1.08;;
12687;SDS011;6408;59.388;17.798;2022-08-03T04:13:43;2.78;;;1.13;;
12687;SDS011;6408;59.388;17.798;2022-08-03T04:16:15;1.33;;;1.05;;
12687;SDS011;6408;59.388;17.798;2022-08-03T04:18:54;1.63;;;0.90;;
12687;SDS011;6408;59.388;17.798;2022-08-03T04:21:25;1.10;;;1.00;;
12687;SDS011;6408;59.388;17.798;2022-08-03T04:23:57;3.72;;;1.20;;
12687;SDS011;6408;59.388;17.798;2022-08-03T04:26:28;2.60;;;1.08;;
12687;SDS011;6408;59.388;17.798;2022-08-03T04:28:58;2.53;;;1.30;;
12687;SDS011;6408;59.388;17.798;2022-08-03T04:31:25;2.22;;;1.10;;
12687;SDS011;6408;59.388;17.798;2022-08-03T04:33:54;3.42;;;1.13;;
12687;SDS011;6408;59.388;17.798;2022-08-03T04:36:22;3.10;;;1.33;;
12687;SDS011;6408;59.388;17.798;2022-08-03T04:38:54;2.67;;;1.45;;
12687;SDS011;6408;59.388;17.798;2022-08-03T04:41:25;1.55;;;1.17;;
12687;SDS011;6408;59.388;17.798;2022-08-03T04:43:53;1.85;;;1.17;;
12687;SDS011;6408;59.388;17.798;2022-08-03T04:46:22;1.48;;;1.00;;
12687;SDS011;6408;59.388;17.798;2022-08-03T04:48:51;1.58;;;1.20;;
12687;SDS011;6408;59.388;17.798;2022-08-03T04:51:20;2.58;;;1.23;;
12687;SDS011;6408;59.388;17.798;2022-08-03T04:53:47;2.85;;;1.10;;
12687;SDS011;6408;59.388;17.798;2022-08-03T04:56:14;3.47;;;1.30;;
12687;SDS011;6408;59.388;17.798;2022-08-03T04:58:41;3.17;;;1.20;;
12687;SDS011;6408;59.388;17.798;2022-08-03T05:01:08;1.40;;;1.13;;
12687;SDS011;6408;59.388;17.798;2022-08-03T05:03:35;2.10;;;1.20;;
12687;SDS011;6408;59.388;17.798;2022-08-03T05:06:02;1.73;;;0.82;;
12687;SDS011;6408;59.388;17.798;2022-08-03T05:08:30;2.65;;;1.30;;
12687;SDS011;6408;59.388;17.798;2022-08-03T05:10:57;3.60;;;1.45;;
12687;SDS011;6408;59.388;17.798;2022-08-03T05:13:23;2.63;;;1.30;;
12687;SDS011;6408;59.388;17.798;2022-08-03T05:15:50;2.28;;;1.20;;
12687;SDS011;6408;59.388;17.798;2022-08-03T05:18:17;4.85;;;1.33;;
12687;SDS011;6408;59.388;17.798;2022-08-03T05:20:44;2.83;;;1.23;;
12687;SDS011;6408;59.388;17.798;2022-08-03T05:23:11;1.90;;;1.20;;
12687;SDS011;6408;59.388;17.798;2022-08-03T05:25:39;2.95;;;1.30;;
12687;SDS011;6408;59.388;17.798;2022-08-03T05:28:06;5.00;;;1.55;;
12687;SDS011;6408;59.388;17.798;2022-08-03T05:30:33;2.03;;;1.27;;
12687;SDS011;6408;59.388;17.798;2022-08-03T05:33:00;2.13;;;1.35;;
12687;SDS011;6408;59.388;17.798;2022-08-03T05:35:28;2.20;;;1.20;;
12687;SDS011;6408;59.388;17.798;2022-08-03T05:37:54;1.20;;;1.10;;
12687;SDS011;6408;59.388;17.798;2022-08-03T05:40:21;1.30;;;1.20;;
12687;SDS011;6408;59.388;17.798;2022-08-03T05:42:50;2.33;;;1.35;;
12687;SDS011;6408;59.388;17.798;2022-08-03T05:45:16;2.45;;;1.20;;
12687;SDS011;6408;59.388;17.798;2022-08-03T05:47:43;1.27;;;1.17;;
12687;SDS011;6408;59.388;17.798;2022-08-03T05:50:10;3.25;;;1.30;;
12687;SDS011;6408;59.388;17.798;2022-08-03T05:52:38;2.22;;;1.45;;
12687;SDS011;6408;59.388;17.798;2022-08-03T05:55:07;1.95;;;1.17;;
12687;SDS011;6408;59.388;17.798;2022-08-03T05:57:35;3.17;;;1.42;;
12687;SDS011;6408;59.388;17.798;2022-08-03T06:00:04;3.30;;;1.27;;
12687;SDS011;6408;59.388;17.798;2022-08-03T06:02:33;1.33;;;1.10;;
12687;SDS011;6408;59.388;17.798;2022-08-03T06:05:00;2.40;;;1.33;;
12687;SDS011;6408;59.388;17.798;2022-08-03T06:07:27;1.65;;;1.30;;
12687;SDS011;6408;59.388;17.798;2022-08-03T06:09:54;1.90;;;1.50;;
12687;SDS011;6408;59.388;17.798;2022-08-03T06:12:21;2.15;;;0.90;;
12687;SDS011;6408;59.388;17.798;2022-08-03T06:14:48;2.08;;;1.30;;
12687;SDS011;6408;59.388;17.798;2022-08-03T06:17:16;2.53;;;1.27;;
12687;SDS011;6408;59.388;17.798;2022-08-03T06:19:43;1.48;;;1.23;;
12687;SDS011;6408;59.388;17.798;2022-08-03T06:22:09;1.98;;;1.27;;
12687;SDS011;6408;59.388;17.798;2022-08-03T06:24:36;2.45;;;1.17;;
12687;SDS011;6408;59.388;17.798;2022-08-03T06:27:03;1.65;;;1.25;;
12687;SDS011;6408;59.388;17.798;2022-08-03T06:29:30;2.55;;;1.35;;
12687;SDS011;6408;59.388;17.798;2022-08-03T06:31:56;2.58;;;1.30;;
12687;SDS011;6408;59.388;17.798;2022-08-03T06:34:24;2.83;;;1.40;;
12687;SDS011;6408;59.388;17.798;2022-08-03T06:36:51;1.60;;;1.50;;
12687;SDS011;6408;59.388;17.798;2022-08-03T06:39:18;1.75;;;1.40;;
12687;SDS011;6408;59.388;17.798;2022-08-03T06:41:45;2.38;;;1.17;;
12687;SDS011;6408;59.388;17.798;2022-08-03T06:44:12;3.08;;;1.20;;
12687;SDS011;6408;59.388;17.798;2022-08-03T06:46:39;1.98;;;1.30;;
12687;SDS011;6408;59.388;17.798;2022-08-03T06:49:07;1.58;;;1.13;;
12687;SDS011;6408;59.388;17.798;2022-08-03T06:51:35;2.03;;;1.10;;
12687;SDS011;6408;59.388;17.798;2022-08-03T06:54:02;3.08;;;1.20;;
12687;SDS011;6408;59.388;17.798;2022-08-03T06:56:29;2.08;;;1.10;;
12687;SDS011;6408;59.388;17.798;2022-08-03T06:58:55;1.30;;;1.20;;
12687;SDS011;6408;59.388;17.798;2022-08-03T07:01:22;2.20;;;1.25;;
12687;SDS011;6408;59.388;17.798;2022-08-03T07:03:49;1.42;;;1.27;;
12687;SDS011;6408;59.388;17.798;2022-08-03T07:06:15;1.83;;;1.33;;
12687;SDS011;6408;59.388;17.798;2022-08-03T07:08:44;2.60;;;1.30;;
12687;SDS011;6408;59.388;17.798;2022-08-03T07:11:10;1.75;;;1.20;;
12687;SDS011;6408;59.388;17.798;2022-08-03T07:13:37;2.03;;;1.48;;
12687;SDS011;6408;59.388;17.798;2022-08-03T07:16:05;2.67;;;1.30;;
12687;SDS011;6408;59.388;17.798;2022-08-03T07:18:32;1.67;;;1.20;;
12687;SDS011;6408;59.388;17.798;2022-08-03T07:20:58;1.55;;;1.10;;
12687;SDS011;6408;59.388;17.798;2022-08-03T07:23:25;1.73;;;1.25;;
12687;SDS011;6408;59.388;17.798;2022-08-03T07:25:53;2.40;;;1.25;;
12687;SDS011;6408;59.388;17.798;2022-08-03T07:28:20;2.75;;;1.30;;
12687;SDS011;6408;59.388;17.798;2022-08-03T07:30:47;3.08;;;1.40;;
12687;SDS011;6408;59.388;17.798;2022-08-03T07:33:14;1.85;;;1.10;;
12687;SDS011;6408;59.388;17.798;2022-08-03T07:35:41;3.05;;;1.23;;
12687;SDS011;6408;59.388;17.798;2022-08-03T07:38:08;1.95;;;1.38;;
12687;SDS011;6408;59.388;17.798;2022-08-03T07:40:35;1.27;;;1.10;;
12687;SDS011;6408;59.388;17.798;2022-08-03T07:43:03;4.05;;;1.15;;
12687;SDS011;6408;59.388;17.798;2022-08-03T07:45:29;2.00;;;1.13;;
12687;SDS011;6408;59.388;17.798;2022-08-03T07:47:56;1.05;;;0.98;;
12687;SDS011;6408;59.388;17.798;2022-08-03T07:50:23;1.30;;;1.20;;
12687;SDS011;6408;59.388;17.798;2022-08-03T07:52:50;1.30;;;1.20;;
12687;SDS011;6408;59.388;17.798;2022-08-03T07:55:20;1.50;;;1.33;;
12687;SDS011;6408;59.388;17.798;2022-08-03T07:57:58;3.70;;;1.27;;
12687;SDS011;6408;59.388;17.798;2022-08-03T08:00:27;1.20;;;1.10;;
12687;SDS011;6408;59.388;17.798;2022-08-03T08:02:54;4.20;;;1.52;;
12687;SDS011;6408;59.388;17.798;2022-08-03T08:05:20;1.23;;;1.13;;
12687;SDS011;6408;59.388;17.798;2022-08-03T08:07:47;2.38;;;1.38;;
12687;SDS011;6408;59.388;17.798;2022-08-03T08:10:14;3.55;;;1.25;;
12687;SDS011;6408;59.388;17.798;2022-08-03T08:12:41;1.42;;;1.33;;
12687;SDS011;6408;59.388;17.798;2022-08-03T08:15:08;1.98;;;1.27;;
12687;SDS011;6408;59.388;17.798;2022-08-03T08:17:43;1.35;;;1.23;;
12687;SDS011;6408;59.388;17.798;2022-08-03T08:20:14;2.05;;;1.25;;
12687;SDS011;6408;59.388;17.798;2022-08-03T08:22:42;1.30;;;1.20;;
12687;SDS011;6408;59.388;17.798;2022-08-03T08:25:09;1.20;;;1.10;;
12687;SDS011;6408;59.388;17.798;2022-08-03T08:27:40;2.03;;;1.17;;
12687;SDS011;6408;59.388;17.798;2022-08-03T08:30:08;1.10;;;1.00;;
12687;SDS011;6408;59.388;17.798;2022-08-03T08:32:36;3.03;;;1.40;;
12687;SDS011;6408;59.388;17.798;2022-08-03T08:35:05;3.45;;;1.45;;
12687;SDS011;6408;59.388;17.798;2022-08-03T08:37:33;1.30;;;1.20;;
12687;SDS011;6408;59.388;17.798;2022-08-03T08:40:00;1.48;;;1.33;;
12687;SDS011;6408;59.388;17.798;2022-08-03T08:42:27;1.70;;;1.60;;
12687;SDS011;6408;59.388;17.798;2022-08-03T08:44:54;1.88;;;1.30;;
12687;SDS011;6408;59.388;17.798;2022-08-03T08:47:21;1.33;;;1.23;;
12687;SDS011;6408;59.388;17.798;2022-08-03T08:49:51;2.10;;;1.38;;
12687;SDS011;6408;59.388;17.798;2022-08-03T08:52:22;1.90;;;1.30;;
12687;SDS011;6408;59.388;17.798;2022-08-03T08:54:51;1.80;;;1.33;;
12687;SDS011;6408;59.388;17.798;2022-08-03T08:57:20;1.95;;;1.35;;
12687;SDS011;6408;59.388;17.798;2022-08-03T08:59:51;1.40;;;1.30;;
12687;SDS011;6408;59.388;17.798;2022-08-03T09:02:20;1.60;;;1.20;;
12687;SDS011;6408;59.388;17.798;2022-08-03T09:04:47;1.75;;;1.40;;
12687;SDS011;6408;59.388;17.798;2022-08-03T09:07:14;1.63;;;1.20;;
12687;SDS011;6408;59.388;17.798;2022-08-03T09:09:44;2.20;;;1.60;;
12687;SDS011;6408;59.388;17.798;2022-08-03T09:12:11;2.50;;;1.35;;
12687;SDS011;6408;59.388;17.798;2022-08-03T09:14:37;1.75;;;1.27;;
12687;SDS011;6408;59.388;17.798;2022-08-03T09:17:04;1.45;;;1.20;;
12687;SDS011;6408;59.388;17.798;2022-08-03T09:19:33;1.83;;;1.15;;
12687;SDS011;6408;59.388;17.798;2022-08-03T09:22:07;2.70;;;1.35;;
12687;SDS011;6408;59.388;17.798;2022-08-03T09:24:35;1.42;;;1.30;;
12687;SDS011;6408;59.388;17.798;2022-08-03T09:27:05;2.75;;;1.35;;
12687;SDS011;6408;59.388;17.798;2022-08-03T09:29:37;1.63;;;1.20;;
12687;SDS011;6408;59.388;17.798;2022-08-03T09:32:04;2.30;;;1.27;;
12687;SDS011;6408;59.388;17.798;2022-08-03T09:34:31;3.05;;;1.50;;
12687;SDS011;6408;59.388;17.798;2022-08-03T09:36:58;2.53;;;1.30;;
12687;SDS011;6408;59.388;17.798;2022-08-03T09:39:25;2.05;;;1.33;;
12687;SDS011;6408;59.388;17.798;2022-08-03T09:42:07;1.45;;;1.15;;
12687;SDS011;6408;59.388;17.798;2022-08-03T09:44:35;2.20;;;1.35;;
12687;SDS011;6408;59.388;17.798;2022-08-03T09:47:03;2.20;;;1.25;;
12687;SDS011;6408;59.388;17.798;2022-08-03T09:49:30;1.70;;;1.20;;
12687;SDS011;6408;59.388;17.798;2022-08-03T09:51:59;1.48;;;1.20;;
12687;SDS011;6408;59.388;17.798;2022-08-03T09:54:28;1.60;;;1.27;;
12687;SDS011;6408;59.388;17.798;2022-08-03T09:56:56;1.10;;;1.10;;
12687;SDS011;6408;59.388;17.798;2022-08-03T09:59:26;1.63;;;1.23;;
12687;SDS011;6408;59.388;17.798;2022-08-03T10:01:53;2.00;;;1.55;;
12687;SDS011;6408;59.388;17.798;2022-08-03T10:04:21;1.75;;;1.15;;
12687;SDS011;6408;59.388;17.798;2022-08-03T10:07:02;2.05;;;1.40;;
12687;SDS011;6408;59.388;17.798;2022-08-03T10:09:30;3.08;;;1.20;;
12687;SDS011;6408;59.388;17.798;2022-08-03T10:12:05;1.88;;;1.40;;
12687;SDS011;6408;59.388;17.798;2022-08-03T10:14:35;2.47;;;1.40;;
12687;SDS011;6408;59.388;17.798;2022-08-03T10:17:03;3.42;;;1.33;;
12687;SDS011;6408;59.388;17.798;2022-08-03T10:19:30;1.70;;;1.23;;
12687;SDS011;6408;59.388;17.798;2022-08-03T10:22:00;1.88;;;1.45;;
12687;SDS011;6408;59.388;17.798;2022-08-03T10:24:29;1.77;;;1.25;;
12687;SDS011;6408;59.388;17.798;2022-08-03T10:27:01;1.85;;;1.35;;
12687;SDS011;6408;59.388;17.798;2022-08-03T10:29:31;1.30;;;1.10;;
12687;SDS011;6408;59.388;17.798;2022-08-03T10:32:03;2.17;;;1.40;;
12687;SDS011;6408;59.388;17.798;2022-08-03T10:34:36;1.17;;;1.08;;
12687;SDS011;6408;59.388;17.798;2022-08-03T10:37:06;2.25;;;1.33;;
12687;SDS011;6408;59.388;17.798;2022-08-03T10:39:36;1.45;;;1.20;;
12687;SDS011;6408;59.388;17.798;2022-08-03T10:42:17;2.15;;;1.42;;
12687;SDS011;6408;59.388;17.798;2022-08-03T10:44:47;1.40;;;1.30;;
12687;SDS011;6408;59.388;17.798;2022-08-03T10:47:16;1.48;;;1.38;;
12687;SDS011;6408;59.388;17.798;2022-08-03T10:49:43;1.40;;;1.30;;
12687;SDS011;6408;59.388;17.798;2022-08-03T10:52:12;1.55;;;1.20;;
12687;SDS011;6408;59.388;17.798;2022-08-03T10:54:40;2.30;;;1.33;;
12687;SDS011;6408;59.388;17.798;2022-08-03T10:57:41;1.40;;;1.30;;
12687;SDS011;6408;59.388;17.798;2022-08-03T11:00:14;2.20;;;1.30;;
12687;SDS011;6408;59.388;17.798;2022-08-03T11:05:39;1.55;;;1.45;;
12687;SDS011;6408;59.388;17.798;2022-08-03T11:08:16;2.03;;;1.27;;
12687;SDS011;6408;59.388;17.798;2022-08-03T11:10:44;2.15;;;1.70;;
12687;SDS011;6408;59.388;17.798;2022-08-03T11:13:11;1.90;;;1.50;;
12687;SDS011;6408;59.388;17.798;2022-08-03T11:15:43;2.25;;;1.52;;
12687;SDS011;6408;59.388;17.798;2022-08-03T11:18:12;1.63;;;1.27;;
12687;SDS011;6408;59.388;17.798;2022-08-03T11:20:43;1.50;;;1.40;;
12687;SDS011;6408;59.388;17.798;2022-08-03T11:23:11;2.85;;;1.63;;
12687;SDS011;6408;59.388;17.798;2022-08-03T11:28:35;1.95;;;1.40;;
12687;SDS011;6408;59.388;17.798;2022-08-03T11:34:15;2.05;;;1.45;;
12687;SDS011;6408;59.388;17.798;2022-08-03T11:39:43;3.03;;;1.60;;
12687;SDS011;6408;59.388;17.798;2022-08-03T11:45:03;3.05;;;1.33;;
12687;SDS011;6408;59.388;17.798;2022-08-03T11:47:35;2.58;;;1.48;;
12687;SDS011;6408;59.388;17.798;2022-08-03T11:50:03;1.80;;;1.48;;
12687;SDS011;6408;59.388;17.798;2022-08-03T11:52:33;2.08;;;1.42;;
12687;SDS011;6408;59.388;17.798;2022-08-03T11:55:01;3.88;;;2.10;;
12687;SDS011;6408;59.388;17.798;2022-08-03T11:57:33;3.08;;;1.60;;
12687;SDS011;6408;59.388;17.798;2022-08-03T12:00:00;2.88;;;1.80;;
12687;SDS011;6408;59.388;17.798;2022-08-03T12:02:29;1.58;;;1.33;;
12687;SDS011;6408;59.388;17.798;2022-08-03T12:04:57;2.35;;;1.40;;
12687;SDS011;6408;59.388;17.798;2022-08-03T12:07:26;2.47;;;1.40;;
12687;SDS011;6408;59.388;17.798;2022-08-03T12:10:06;2.88;;;1.35;;
12687;SDS011;6408;59.388;17.798;2022-08-03T12:12:33;4.32;;;1.55;;
12687;SDS011;6408;59.388;17.798;2022-08-03T12:15:01;1.55;;;1.38;;
12687;SDS011;6408;59.388;17.798;2022-08-03T12:17:31;3.13;;;1.60;;
12687;SDS011;6408;59.388;17.798;2022-08-03T12:20:00;2.72;;;1.50;;
12687;SDS011;6408;59.388;17.798;2022-08-03T12:22:30;2.60;;;1.58;;
12687;SDS011;6408;59.388;17.798;2022-08-03T12:24:57;2.30;;;1.40;;
12687;SDS011;6408;59.388;17.798;2022-08-03T12:27:24;2.55;;;1.40;;
12687;SDS011;6408;59.388;17.798;2022-08-03T12:29:54;3.00;;;1.50;;
12687;SDS011;6408;59.388;17.798;2022-08-03T12:32:21;3.40;;;1.70;;
12687;SDS011;6408;59.388;17.798;2022-08-03T12:34:49;2.00;;;1.42;;
12687;SDS011;6408;59.388;17.798;2022-08-03T12:37:18;2.67;;;1.38;;
12687;SDS011;6408;59.388;17.798;2022-08-03T12:39:48;2.97;;;1.40;;
12687;SDS011;6408;59.388;17.798;2022-08-03T12:42:16;3.30;;;1.48;;
12687;SDS011;6408;59.388;17.798;2022-08-03T12:44:43;2.30;;;1.67;;
12687;SDS011;6408;59.388;17.798;2022-08-03T12:47:12;1.98;;;1.40;;
12687;SDS011;6408;59.388;17.798;2022-08-03T12:49:43;3.20;;;1.42;;
12687;SDS011;6408;59.388;17.798;2022-08-03T12:52:10;1.35;;;1.20;;
12687;SDS011;6408;59.388;17.798;2022-08-03T12:54:39;2.90;;;1.33;;
12687;SDS011;6408;59.388;17.798;2022-08-03T12:57:07;3.45;;;1.58;;
12687;SDS011;6408;59.388;17.798;2022-08-03T12:59:35;1.45;;;1.20;;
12687;SDS011;6408;59.388;17.798;2022-08-03T13:02:12;3.10;;;1.45;;
12687;SDS011;6408;59.388;17.798;2022-08-03T13:04:40;2.42;;;1.70;;
12687;SDS011;6408;59.388;17.798;2022-08-03T13:07:07;4.07;;;1.80;;
12687;SDS011;6408;59.388;17.798;2022-08-03T13:09:41;1.77;;;1.45;;
12687;SDS011;6408;59.388;17.798;2022-08-03T13:12:09;2.00;;;1.50;;
12687;SDS011;6408;59.388;17.798;2022-08-03T13:14:37;1.67;;;1.40;;
12687;SDS011;6408;59.388;17.798;2022-08-03T13:17:04;2.45;;;1.45;;
12687;SDS011;6408;59.388;17.798;2022-08-03T13:19:31;3.28;;;1.60;;
12687;SDS011;6408;59.388;17.798;2022-08-03T13:22:00;4.90;;;1.60;;
12687;SDS011;6408;59.388;17.798;2022-08-03T13:24:35;3.55;;;1.67;;
12687;SDS011;6408;59.388;17.798;2022-08-03T13:27:03;3.30;;;1.48;;
12687;SDS011;6408;59.388;17.798;2022-08-03T13:29:31;3.00;;;1.67;;
12687;SDS011;6408;59.388;17.798;2022-08-03T13:31:58;3.47;;;1.67;;
12687;SDS011;6408;59.388;17.798;2022-08-03T13:34:25;1.85;;;1.50;;
12687;SDS011;6408;59.388;17.798;2022-08-03T13:36:52;1.98;;;1.60;;
12687;SDS011;6408;59.388;17.798;2022-08-03T13:39:18;3.53;;;1.48;;
12687;SDS011;6408;59.388;17.798;2022-08-03T13:41:45;1.60;;;1.50;;
12687;SDS011;6408;59.388;17.798;2022-08-03T13:44:14;2.22;;;1.60;;
12687;SDS011;6408;59.388;17.798;2022-08-03T13:46:40;2.95;;;1.70;;
12687;SDS011;6408;59.388;17.798;2022-08-03T13:49:07;2.80;;;1.48;;
12687;SDS011;6408;59.388;17.798;2022-08-03T13:51:34;3.03;;;1.50;;
12687;SDS011;6408;59.388;17.798;2022-08-03T13:54:01;3.03;;;1.65;;
12687;SDS011;6408;59.388;17.798;2022-08-03T13:56:28;3.58;;;1.70;;
12687;SDS011;6408;59.388;17.798;2022-08-03T13:58:56;1.90;;;1.60;;
12687;SDS011;6408;59.388;17.798;2022-08-03T14:01:25;5.35;;;1.80;;
12687;SDS011;6408;59.388;17.798;2022-08-03T14:03:51;4.32;;;1.70;;
12687;SDS011;6408;59.388;17.798;2022-08-03T14:06:20;2.03;;;1.60;;
12687;SDS011;6408;59.388;17.798;2022-08-03T14:08:47;3.25;;;1.73;;
12687;SDS011;6408;59.388;17.798;2022-08-03T14:11:15;3.42;;;1.90;;
12687;SDS011;6408;59.388;17.798;2022-08-03T14:13:42;2.00;;;1.63;;
12687;SDS011;6408;59.388;17.798;2022-08-03T14:16:09;2.95;;;1.73;;
12687;SDS011;6408;59.388;17.798;2022-08-03T14:18:37;3.35;;;1.80;;
12687;SDS011;6408;59.388;17.798;2022-08-03T14:21:04;2.35;;;1.70;;
12687;SDS011;6408;59.388;17.798;2022-08-03T14:23:31;1.98;;;1.42;;
12687;SDS011;6408;59.388;17.798;2022-08-03T14:25:58;2.83;;;1.60;;
12687;SDS011;6408;59.388;17.798;2022-08-03T14:28:25;4.05;;;1.52;;
12687;SDS011;6408;59.388;17.798;2022-08-03T14:30:53;2.33;;;1.63;;
12687;SDS011;6408;59.388;17.798;2022-08-03T14:33:20;3.28;;;1.70;;
12687;SDS011;6408;59.388;17.798;2022-08-03T14:35:49;2.38;;;1.70;;
12687;SDS011;6408;59.388;17.798;2022-08-03T14:38:16;4.50;;;1.70;;
12687;SDS011;6408;59.388;17.798;2022-08-03T14:40:44;3.50;;;1.60;;
12687;SDS011;6408;59.388;17.798;2022-08-03T14:43:11;1.95;;;1.70;;
12687;SDS011;6408;59.388;17.798;2022-08-03T14:45:38;2.47;;;1.90;;
12687;SDS011;6408;59.388;17.798;2022-08-03T14:48:05;3.67;;;1.90;;
12687;SDS011;6408;59.388;17.798;2022-08-03T14:50:32;2.95;;;1.67;;
12687;SDS011;6408;59.388;17.798;2022-08-03T14:53:00;2.78;;;2.20;;
12687;SDS011;6408;59.388;17.798;2022-08-03T14:55:27;4.22;;;1.98;;
12687;SDS011;6408;59.388;17.798;2022-08-03T14:57:54;2.67;;;1.90;;
12687;SDS011;6408;59.388;17.798;2022-08-03T15:00:21;2.10;;;1.58;;
12687;SDS011;6408;59.388;17.798;2022-08-03T15:02:47;3.65;;;2.25;;
12687;SDS011;6408;59.388;17.798;2022-08-03T15:05:14;2.83;;;1.70;;
12687;SDS011;6408;59.388;17.798;2022-08-03T15:07:41;4.47;;;2.20;;
12687;SDS011;6408;59.388;17.798;2022-08-03T15:10:09;3.25;;;2.38;;
12687;SDS011;6408;59.388;17.798;2022-08-03T15:12:36;3.30;;;2.00;;